createdAt,value
2018-02-02T04:30:27.055Z,1.70
2018-02-02T04:32:54.818Z,2.15
2018-02-02T04:35:27.299Z,2.05
2018-02-02T04:37:57.811Z,2.10
2018-02-02T04:40:25.786Z,2.45
2018-02-02T04:42:53.549Z,2.08
2018-02-02T04:45:21.247Z,2.10
2018-02-02T04:47:49.894Z,2.60
2018-02-02T04:50:17.658Z,2.87
2018-02-02T04:52:45.523Z,2.65
2018-02-02T04:55:13.490Z,3.70
2018-02-02T04:57:41.253Z,5.20
2018-02-02T05:00:09.016Z,6.20
2018-02-02T05:02:36.882Z,5.97
2018-02-02T05:05:04.644Z,5.18
2018-02-02T05:07:32.510Z,4.03
2018-02-02T05:10:00.374Z,3.90
2018-02-02T05:12:28.179Z,3.00
2018-02-02T05:14:56.824Z,3.95
2018-02-02T05:17:24.689Z,2.60
2018-02-02T05:19:52.554Z,3.40
2018-02-02T05:22:20.417Z,3.15
2018-02-02T05:24:48.181Z,3.53
2018-02-02T05:27:16.046Z,3.22
2018-02-02T05:29:43.913Z,3.12
2018-02-02T05:32:11.776Z,4.50
2018-02-02T05:34:39.642Z,3.83
2018-02-02T05:37:07.506Z,2.85
2018-02-02T05:39:35.373Z,3.20
2018-02-02T05:42:03.135Z,3.22
2018-02-02T05:44:31.102Z,3.45
2018-02-02T05:46:58.865Z,4.15
2018-02-02T05:49:26.628Z,3.67
2018-02-02T05:51:54.494Z,3.25
2018-02-02T05:54:22.211Z,3.67
2018-02-02T05:56:50.019Z,3.65
2018-02-02T05:59:17.987Z,4.05
2018-02-02T06:01:45.856Z,3.85
2018-02-02T06:04:13.823Z,4.57
2018-02-02T06:06:41.537Z,4.43
2018-02-02T06:09:09.447Z,3.80
2018-02-02T06:11:37.313Z,4.90
2018-02-02T06:14:05.076Z,3.80
2018-02-02T06:16:32.839Z,3.33
2018-02-02T06:19:00.704Z,4.20
2018-02-02T06:21:28.569Z,4.35
2018-02-02T06:23:56.435Z,4.20
2018-02-02T06:26:24.302Z,4.32
2018-02-02T06:28:52.166Z,3.87
2018-02-02T06:31:19.928Z,4.28
2018-02-02T06:33:47.794Z,4.50
2018-02-02T06:36:15.659Z,5.20
2018-02-02T06:38:43.422Z,4.37
2018-02-02T06:41:11.389Z,4.60
2018-02-02T06:43:39.152Z,4.90
2018-02-02T06:46:07.021Z,4.10
2018-02-02T06:48:34.781Z,4.57
2018-02-02T06:51:02.583Z,4.10
2018-02-02T06:53:31.125Z,3.67
2018-02-02T06:55:58.975Z,4.43
2018-02-02T06:58:26.856Z,4.40
2018-02-02T07:00:54.823Z,5.00
2018-02-02T07:03:22.737Z,4.30
2018-02-02T07:05:51.373Z,4.40
2018-02-02T07:08:19.136Z,3.83
2018-02-02T07:10:47.002Z,4.05
2018-02-02T07:13:14.867Z,4.15
2018-02-02T07:15:42.629Z,5.05
2018-02-02T07:18:10.393Z,4.87
2018-02-02T07:20:38.258Z,5.07
2018-02-02T07:23:06.023Z,5.32
2018-02-02T07:25:33.886Z,5.85
2018-02-02T07:28:01.693Z,6.37
2018-02-02T07:30:30.232Z,4.68
2018-02-02T07:32:58.097Z,4.62
2018-02-02T07:35:25.816Z,4.95
2018-02-02T07:37:53.487Z,3.95
2018-02-02T07:40:21.185Z,4.50
2018-02-02T07:42:48.887Z,3.60
2018-02-02T07:45:17.363Z,4.35
2018-02-02T07:47:45.828Z,4.10
2018-02-02T07:50:14.375Z,3.83
2018-02-02T07:52:42.076Z,4.28
2018-02-02T07:55:10.547Z,4.20
2018-02-02T07:57:38.255Z,4.60
2018-02-02T08:00:05.927Z,4.80
2018-02-02T08:02:33.599Z,3.70
2018-02-02T08:05:01.315Z,4.12
2018-02-02T08:07:29.778Z,4.78
2018-02-02T08:09:58.279Z,4.10
2018-02-02T08:12:25.963Z,4.32
2018-02-02T08:14:53.635Z,3.78
2018-02-02T08:17:21.363Z,4.10
2018-02-02T08:19:51.279Z,3.78
2018-02-02T08:22:19.107Z,3.80
2018-02-02T08:24:46.831Z,4.20
2018-02-02T08:27:14.523Z,4.32
2018-02-02T08:29:42.221Z,3.90
2018-02-02T08:32:10.723Z,4.25
2018-02-02T08:34:38.418Z,3.60
2018-02-02T08:37:06.091Z,2.90
2018-02-02T08:39:33.787Z,3.33
2018-02-02T08:42:02.321Z,3.05
2018-02-02T08:44:30.184Z,3.00
2018-02-02T08:46:57.947Z,4.35
2018-02-02T08:49:25.710Z,3.00
2018-02-02T08:51:53.575Z,3.70
2018-02-02T08:54:21.354Z,3.58
2018-02-02T08:56:49.151Z,3.90
2018-02-02T08:59:17.068Z,4.15
2018-02-02T09:01:50.502Z,3.90
2018-02-02T09:04:19.147Z,3.95
2018-02-02T09:06:46.911Z,4.00
2018-02-02T09:09:14.779Z,5.12
2018-02-02T09:11:42.590Z,4.00
2018-02-02T09:14:10.507Z,4.62
2018-02-02T09:16:38.274Z,4.93
2018-02-02T09:19:06.138Z,4.37
2018-02-02T09:21:33.837Z,3.55
2018-02-02T09:24:02.298Z,3.53
2018-02-02T09:26:30.047Z,3.80
2018-02-02T09:28:57.905Z,3.55
2018-02-02T09:31:25.771Z,3.30
2018-02-02T09:33:53.637Z,3.25
2018-02-02T09:36:21.439Z,3.40
2018-02-02T09:38:49.980Z,3.70
2018-02-02T09:41:17.846Z,3.20
2018-02-02T09:43:45.608Z,3.53
2018-02-02T09:46:13.473Z,3.55
2018-02-02T09:48:41.175Z,4.15
2018-02-02T09:51:09.818Z,3.80
2018-02-02T09:53:37.683Z,3.55
2018-02-02T09:56:05.487Z,3.62
2018-02-02T09:58:34.028Z,2.78
2018-02-02T10:01:01.943Z,3.90
2018-02-02T10:03:30.578Z,4.00
2018-02-02T10:05:58.444Z,3.62
2018-02-02T10:08:26.247Z,3.28
2018-02-02T10:10:54.788Z,2.78
2018-02-02T10:13:22.553Z,2.65
2018-02-02T10:15:50.522Z,2.28
2018-02-02T10:18:18.282Z,2.33
2018-02-02T10:20:46.046Z,3.55
2018-02-02T10:23:14.115Z,2.72
2018-02-02T10:25:41.827Z,2.65
2018-02-02T10:28:09.645Z,2.45
2018-02-02T10:30:37.556Z,2.72
2018-02-02T10:33:06.191Z,2.40
2018-02-02T10:35:33.954Z,3.37
2018-02-02T10:38:01.859Z,2.87
2018-02-02T10:40:30.339Z,2.70
2018-02-02T10:42:59.026Z,2.67
2018-02-02T10:45:29.262Z,2.85
2018-02-02T10:47:57.068Z,2.35
2018-02-02T10:50:24.934Z,2.95
2018-02-02T10:52:52.800Z,2.50
2018-02-02T10:55:20.665Z,2.85
2018-02-02T10:57:48.532Z,2.87
2018-02-02T11:00:16.293Z,2.60
2018-02-02T11:02:49.793Z,2.87
2018-02-02T11:05:17.556Z,2.53
2018-02-02T11:07:45.320Z,2.30
2018-02-02T11:10:13.182Z,2.50
2018-02-02T11:12:40.874Z,2.58
2018-02-02T11:15:09.363Z,2.00
2018-02-02T11:17:38.007Z,2.58
2018-02-02T11:20:05.775Z,2.12
2018-02-02T11:22:33.636Z,2.65
2018-02-02T11:25:01.503Z,2.55
2018-02-02T11:27:29.271Z,2.75
2018-02-02T11:29:57.075Z,2.25
2018-02-02T11:32:25.751Z,2.30
2018-02-02T11:34:54.395Z,3.03
2018-02-02T11:37:22.157Z,2.50
2018-02-02T11:39:50.024Z,2.67
2018-02-02T11:42:17.788Z,2.22
2018-02-02T11:44:45.602Z,2.33
2018-02-02T11:47:13.415Z,2.05
2018-02-02T11:49:41.383Z,2.78
2018-02-02T11:52:09.370Z,2.05
2018-02-02T11:54:37.215Z,2.67
2018-02-02T11:57:05.183Z,2.15
2018-02-02T11:59:32.946Z,1.90
2018-02-02T12:02:00.709Z,1.83
2018-02-02T12:04:28.472Z,2.60
2018-02-02T12:06:56.235Z,2.12
2018-02-02T12:09:23.936Z,2.17
2018-02-02T12:11:52.580Z,2.00
2018-02-02T12:14:20.346Z,2.50
2018-02-02T12:16:48.208Z,2.60
2018-02-02T12:19:16.012Z,2.30
2018-02-02T12:24:50.920Z,2.53
2018-02-02T12:27:37.422Z,2.60
2018-02-02T12:30:11.023Z,2.00
2018-02-02T12:35:42.699Z,2.25
2018-02-02T12:38:10.565Z,2.50
2018-02-02T12:40:39.246Z,2.15
2018-02-02T12:43:07.011Z,1.75
2018-02-02T12:45:34.874Z,2.60
2018-02-02T12:48:03.660Z,1.95
2018-02-02T12:53:36.103Z,2.30
2018-02-02T12:56:03.916Z,2.47
2018-02-02T12:58:31.730Z,1.77
2018-02-02T13:00:59.544Z,1.92
2018-02-02T13:03:27.358Z,2.20
2018-02-02T13:05:55.173Z,3.40
2018-02-02T13:08:23.037Z,2.30
2018-02-02T13:10:51.006Z,2.40
2018-02-02T13:13:18.769Z,2.60
2018-02-02T13:15:46.469Z,2.70
2018-02-02T13:18:15.114Z,2.67
2018-02-02T13:20:42.979Z,2.45
2018-02-02T13:23:10.742Z,2.70
2018-02-02T13:25:38.558Z,2.70
2018-02-02T13:28:06.474Z,2.35
2018-02-02T13:30:34.338Z,2.87
2018-02-02T13:33:02.102Z,2.85
2018-02-02T13:35:29.903Z,2.55
2018-02-02T13:37:58.548Z,2.60
2018-02-02T13:40:26.311Z,3.12
2018-02-02T13:42:53.983Z,3.30
2018-02-02T13:45:21.837Z,3.40
2018-02-02T13:47:49.703Z,3.70
2018-02-02T13:50:17.569Z,3.22
2018-02-02T13:52:45.536Z,3.65
2018-02-02T13:55:13.300Z,4.05
2018-02-02T13:57:41.068Z,3.70
2018-02-02T14:00:09.643Z,3.47
2018-02-02T14:02:37.518Z,3.33
2018-02-02T14:05:05.376Z,3.37
2018-02-02T14:07:33.139Z,3.72
2018-02-02T14:10:00.903Z,4.03
2018-02-02T14:12:28.765Z,3.10
2018-02-02T14:14:56.630Z,2.90
2018-02-02T14:17:24.496Z,3.70
2018-02-02T14:19:52.463Z,2.80
2018-02-02T14:22:20.328Z,3.50
2018-02-02T14:24:48.194Z,3.58
2018-02-02T14:27:15.995Z,3.20
2018-02-02T14:29:44.539Z,3.50
2018-02-02T14:32:12.404Z,3.28
2018-02-02T14:34:40.272Z,3.65
2018-02-02T14:37:08.238Z,3.30
2018-02-02T14:39:36.102Z,3.83
2018-02-02T14:42:03.968Z,3.72
2018-02-02T14:44:31.935Z,3.75
2018-02-02T14:46:59.701Z,3.62
2018-02-02T14:49:27.512Z,3.78
2018-02-02T14:51:56.257Z,3.92
2018-02-02T14:54:24.011Z,2.95
2018-02-02T14:56:51.879Z,3.08
2018-02-02T14:59:19.846Z,3.90
2018-02-02T15:01:47.607Z,3.42
2018-02-02T15:04:15.369Z,3.28
2018-02-02T15:06:43.235Z,3.62
2018-02-02T15:09:10.998Z,4.32
2018-02-02T15:11:38.864Z,4.00
2018-02-02T15:14:06.729Z,4.30
2018-02-02T15:16:34.597Z,4.30
2018-02-02T15:19:02.360Z,3.30
2018-02-02T15:21:30.223Z,3.60
2018-02-02T15:23:57.937Z,3.87
2018-02-02T15:26:25.751Z,4.55
2018-02-02T15:28:53.614Z,3.50
2018-02-02T15:31:21.478Z,3.72
2018-02-02T15:33:49.344Z,4.10
2018-02-02T15:36:17.209Z,4.53
2018-02-02T15:38:44.973Z,3.50
2018-02-02T15:41:12.939Z,3.45
2018-02-02T15:43:40.651Z,4.25
2018-02-02T15:46:08.468Z,3.80
2018-02-02T15:48:36.282Z,4.43
2018-02-02T15:51:04.094Z,3.90
2018-02-02T15:53:31.959Z,3.85
2018-02-02T15:55:59.824Z,5.10
2018-02-02T15:58:27.527Z,4.00
2018-02-02T16:00:56.067Z,3.25
2018-02-02T16:03:23.934Z,3.65
2018-02-02T16:05:51.797Z,3.25
2018-02-02T16:08:19.663Z,2.70
2018-02-02T16:10:47.476Z,3.35
2018-02-02T16:13:15.291Z,3.70
2018-02-02T16:15:43.095Z,3.15
2018-02-02T16:18:11.739Z,3.30
2018-02-02T16:20:39.420Z,3.67
2018-02-02T16:23:07.131Z,3.37
2018-02-02T16:25:34.832Z,3.60
2018-02-02T16:28:02.690Z,3.50
2018-02-02T16:30:30.410Z,3.65
2018-02-02T16:32:58.112Z,3.80
2018-02-02T16:35:25.816Z,3.65
2018-02-02T16:37:54.331Z,5.37
2018-02-02T16:40:22.117Z,4.47
2018-02-02T16:42:49.935Z,5.03
2018-02-02T16:45:17.660Z,3.50
2018-02-02T16:47:45.355Z,4.68
2018-02-02T16:50:13.055Z,3.90
2018-02-02T16:52:40.763Z,4.03
2018-02-02T16:55:09.204Z,4.30
2018-02-02T16:57:36.942Z,3.40
2018-02-02T17:00:05.371Z,4.65
2018-02-02T17:02:33.067Z,4.22
2018-02-02T17:05:00.789Z,5.97
2018-02-02T17:07:28.478Z,5.40
2018-02-02T17:09:56.919Z,5.65
2018-02-02T17:12:24.639Z,5.50
2018-02-02T17:14:52.307Z,5.10
2018-02-02T17:17:20.007Z,4.65
2018-02-02T17:19:47.731Z,4.47
2018-02-02T17:22:15.404Z,5.12
2018-02-02T17:24:43.103Z,5.07
2018-02-02T17:27:10.884Z,5.53
2018-02-02T17:29:39.319Z,4.97
2018-02-02T17:32:07.006Z,5.97
2018-02-02T17:34:34.726Z,4.72
2018-02-02T17:37:02.574Z,5.72
2018-02-02T17:39:30.290Z,5.47
2018-02-02T17:41:58.819Z,5.15
2018-02-02T17:44:26.549Z,4.82
2018-02-02T17:46:55.017Z,5.53
2018-02-02T17:49:22.857Z,5.30
2018-02-02T17:51:50.723Z,5.68
2018-02-02T17:54:18.485Z,5.12
2018-02-02T17:56:46.350Z,5.30
2018-02-02T17:59:14.113Z,4.43
2018-02-02T18:01:45.461Z,4.82
2018-02-02T18:04:13.325Z,3.95
2018-02-02T18:06:41.089Z,4.65
2018-02-02T18:09:08.913Z,4.22
2018-02-02T18:11:36.823Z,4.80
2018-02-02T18:14:04.584Z,4.70
2018-02-02T18:16:32.449Z,4.45
2018-02-02T18:19:00.213Z,4.28
2018-02-02T18:21:28.016Z,4.60
2018-02-02T18:23:56.760Z,4.55
2018-02-02T18:26:24.631Z,4.55
2018-02-02T18:28:52.492Z,4.95
2018-02-02T18:31:20.459Z,4.45
2018-02-02T18:33:48.324Z,4.47
2018-02-02T18:36:16.086Z,5.18
2018-02-02T18:38:44.260Z,4.97
2018-02-02T18:41:12.025Z,5.07
2018-02-02T18:43:39.734Z,4.85
2018-02-02T18:46:07.703Z,4.82
2018-02-02T18:48:35.516Z,4.53
2018-02-02T18:51:03.386Z,3.87
2018-02-02T18:53:31.924Z,4.72
2018-02-02T18:55:59.690Z,4.35
2018-02-02T18:58:27.900Z,4.30
2018-02-02T19:00:55.599Z,4.30
2018-02-02T19:03:24.035Z,4.10
2018-02-02T19:05:51.776Z,4.10
2018-02-02T19:08:19.743Z,4.10
2018-02-02T19:10:47.470Z,3.92
2018-02-02T19:13:16.418Z,4.00
2018-02-02T19:15:45.154Z,4.05
2018-02-02T19:18:12.902Z,4.68
2018-02-02T19:20:41.450Z,4.50
2018-02-02T19:23:09.214Z,6.68
2018-02-02T19:25:37.079Z,5.87
2018-02-02T19:28:04.945Z,4.80
2018-02-02T19:30:32.913Z,4.43
2018-02-02T19:33:00.715Z,4.45
2018-02-02T19:35:29.258Z,4.90
2018-02-02T19:37:57.123Z,4.47
2018-02-02T19:40:24.886Z,6.80
2018-02-02T19:42:52.648Z,5.55
2018-02-02T19:45:20.456Z,5.05
2018-02-02T19:47:48.931Z,5.37
2018-02-02T19:50:17.474Z,5.40
2018-02-02T19:52:45.544Z,5.78
2018-02-02T19:55:13.409Z,6.60
2018-02-02T19:57:42.067Z,6.00
2018-02-02T20:00:09.852Z,5.68
2018-02-02T20:02:37.529Z,6.43
2018-02-02T20:05:05.205Z,5.93
2018-02-02T20:07:33.044Z,5.82
2018-02-02T20:10:02.028Z,6.80
2018-02-02T20:12:30.719Z,6.93
2018-02-02T20:14:58.481Z,6.90
2018-02-02T20:17:26.248Z,6.40
2018-02-02T20:19:54.213Z,6.20
2018-02-02T20:22:21.975Z,6.50
2018-02-02T20:24:49.738Z,7.45
2018-02-02T20:27:17.604Z,7.30
2018-02-02T20:29:45.366Z,6.68
2018-02-02T20:32:13.233Z,7.20
2018-02-02T20:34:41.966Z,7.45
2018-02-02T20:37:10.601Z,6.70
2018-02-02T20:39:38.466Z,6.00
2018-02-02T20:42:06.332Z,6.65
2018-02-02T20:44:34.148Z,6.68
2018-02-02T20:47:02.063Z,7.55
2018-02-02T20:49:29.928Z,7.57
2018-02-02T20:51:57.733Z,7.03
2018-02-02T20:54:26.273Z,7.18
2018-02-02T20:56:54.179Z,7.68
2018-02-02T20:59:22.720Z,6.97
2018-02-02T21:01:50.587Z,7.35
2018-02-02T21:04:18.556Z,6.30
2018-02-02T21:06:46.318Z,6.40
2018-02-02T21:09:14.181Z,6.10
2018-02-02T21:11:42.049Z,7.78
2018-02-02T21:14:09.812Z,7.18
2018-02-02T21:16:37.675Z,6.00
2018-02-02T21:19:05.478Z,6.55
2018-02-02T21:21:34.123Z,7.00
2018-02-02T21:24:01.988Z,6.82
2018-02-02T21:26:29.907Z,7.15
2018-02-02T21:28:57.827Z,7.30
2018-02-02T21:31:25.639Z,7.20
2018-02-02T21:33:53.552Z,7.75
2018-02-02T21:36:21.315Z,6.68
2018-02-02T21:38:49.181Z,6.20
2018-02-02T21:41:16.942Z,7.07
2018-02-02T21:43:44.842Z,6.90
2018-02-02T21:46:13.391Z,7.90
2018-02-02T21:48:41.153Z,6.05
2018-02-02T21:51:09.121Z,6.65
2018-02-02T21:53:36.885Z,6.97
2018-02-02T21:56:04.649Z,6.12
2018-02-02T21:58:32.515Z,7.05
2018-02-02T22:01:00.380Z,6.05
2018-02-02T22:03:28.243Z,7.20
2018-02-02T22:05:56.108Z,5.82
2018-02-02T22:08:23.974Z,5.85
2018-02-02T22:10:51.687Z,5.82
2018-02-02T22:13:19.602Z,6.28
2018-02-02T22:15:47.468Z,6.28
2018-02-02T22:18:15.231Z,5.10
2018-02-02T22:20:43.198Z,6.00
2018-02-02T22:23:10.914Z,6.07
2018-02-02T22:25:38.826Z,6.00
2018-02-02T22:28:06.692Z,7.22
2018-02-02T22:30:34.454Z,6.57
2018-02-02T22:33:02.319Z,6.05
2018-02-02T22:35:30.085Z,5.70
2018-02-02T22:37:57.948Z,6.03
2018-02-02T22:40:25.916Z,5.32
2018-02-02T22:42:53.782Z,5.62
2018-02-02T22:45:21.494Z,5.78
2018-02-02T22:47:49.309Z,6.47
2018-02-02T22:50:17.175Z,4.97
2018-02-02T22:52:44.937Z,4.93
2018-02-02T22:55:12.739Z,6.45
2018-02-02T22:57:41.280Z,6.20
2018-02-02T23:00:09.045Z,5.72
2018-02-02T23:02:36.913Z,6.07
2018-02-02T23:05:04.672Z,5.78
2018-02-02T23:07:32.542Z,6.05
2018-02-02T23:10:00.402Z,5.60
2018-02-02T23:12:28.371Z,5.55
2018-02-02T23:14:56.133Z,5.80
2018-02-02T23:17:23.997Z,5.03
2018-02-02T23:19:51.966Z,5.43
2018-02-02T23:22:19.830Z,5.00
2018-02-02T23:24:47.698Z,5.05
2018-02-02T23:27:15.564Z,6.07
2018-02-02T23:29:43.325Z,5.25
